sensor_id;sensor_type;location;lat;lon;timestamp;temperature;humidity
15298;DHT22;7750;48.796;9.026;2023-03-01T00:03:02;3.60;56.90
15298;DHT22;7750;48.796;9.026;2023-03-01T00:08:02;3.60;57.00
15298;DHT22;7750;48.796;9.026;2023-03-01T00:13:03;3.60;57.10
15298;DHT22;7750;48.796;9.026;2023-03-01T00:18:05;3.60;57.20
15298;DHT22;7750;48.796;9.026;2023-03-01T00:23:06;3.50;57.20
15298;DHT22;7750;48.796;9.026;2023-03-01T00:28:07;3.50;57.20
15298;DHT22;7750;48.796;9.026;2023-03-01T00:33:08;3.50;57.30
15298;DHT22;7750;48.796;9.026;2023-03-01T00:38:08;3.40;57.80
15298;DHT22;7750;48.796;9.026;2023-03-01T00:43:09;3.40;57.30
15298;DHT22;7750;48.796;9.026;2023-03-01T00:48:10;3.30;57.60
15298;DHT22;7750;48.796;9.026;2023-03-01T00:53:11;3.30;57.40
15298;DHT22;7750;48.796;9.026;2023-03-01T00:58:11;3.20;57.50
15298;DHT22;7750;48.796;9.026;2023-03-01T01:03:12;3.20;57.60
15298;DHT22;7750;48.796;9.026;2023-03-01T01:08:12;3.10;57.70
15298;DHT22;7750;48.796;9.026;2023-03-01T01:13:14;3.10;57.70
15298;DHT22;7750;48.796;9.026;2023-03-01T01:18:15;3.00;57.70
15298;DHT22;7750;48.796;9.026;2023-03-01T01:23:15;3.00;57.80
15298;DHT22;7750;48.796;9.026;2023-03-01T01:28:16;3.00;57.90
15298;DHT22;7750;48.796;9.026;2023-03-01T01:33:16;2.90;58.00
15298;DHT22;7750;48.796;9.026;2023-03-01T01:38:17;2.80;58.00
15298;DHT22;7750;48.796;9.026;2023-03-01T01:43:27;2.80;58.20
15298;DHT22;7750;48.796;9.026;2023-03-01T01:48:38;2.80;58.40
15298;DHT22;7750;48.796;9.026;2023-03-01T01:53:43;2.80;58.50
15298;DHT22;7750;48.796;9.026;2023-03-01T01:58:46;2.80;58.50
15298;DHT22;7750;48.796;9.026;2023-03-01T02:03:48;2.80;58.50
15298;DHT22;7750;48.796;9.026;2023-03-01T02:08:49;2.70;58.50
15298;DHT22;7750;48.796;9.026;2023-03-01T02:13:53;2.80;58.60
15298;DHT22;7750;48.796;9.026;2023-03-01T02:18:54;2.70;58.60
15298;DHT22;7750;48.796;9.026;2023-03-01T02:23:57;2.70;58.60
15298;DHT22;7750;48.796;9.026;2023-03-01T02:28:59;2.70;58.80
15298;DHT22;7750;48.796;9.026;2023-03-01T02:34:00;2.70;58.90
15298;DHT22;7750;48.796;9.026;2023-03-01T02:39:06;2.70;59.00
15298;DHT22;7750;48.796;9.026;2023-03-01T02:44:08;2.70;59.20
15298;DHT22;7750;48.796;9.026;2023-03-01T02:49:27;2.70;59.20
15298;DHT22;7750;48.796;9.026;2023-03-01T02:54:33;2.80;60.10
15298;DHT22;7750;48.796;9.026;2023-03-01T02:59:37;2.80;59.50
15298;DHT22;7750;48.796;9.026;2023-03-01T03:04:42;2.80;59.60
15298;DHT22;7750;48.796;9.026;2023-03-01T03:09:43;2.80;59.70
15298;DHT22;7750;48.796;9.026;2023-03-01T03:14:43;2.90;59.80
15298;DHT22;7750;48.796;9.026;2023-03-01T03:19:44;2.90;59.90
15298;DHT22;7750;48.796;9.026;2023-03-01T03:24:45;2.90;59.80
15298;DHT22;7750;48.796;9.026;2023-03-01T03:29:46;3.00;59.90
15298;DHT22;7750;48.796;9.026;2023-03-01T03:34:47;3.00;59.90
15298;DHT22;7750;48.796;9.026;2023-03-01T03:39:48;3.00;59.90
15298;DHT22;7750;48.796;9.026;2023-03-01T03:44:49;3.00;60.60
15298;DHT22;7750;48.796;9.026;2023-03-01T03:49:49;3.10;60.00
15298;DHT22;7750;48.796;9.026;2023-03-01T03:54:50;3.00;60.00
15298;DHT22;7750;48.796;9.026;2023-03-01T03:59:51;3.00;60.10
15298;DHT22;7750;48.796;9.026;2023-03-01T04:04:51;3.00;60.10
15298;DHT22;7750;48.796;9.026;2023-03-01T04:09:52;3.10;60.20
15298;DHT22;7750;48.796;9.026;2023-03-01T04:14:52;3.10;60.30
15298;DHT22;7750;48.796;9.026;2023-03-01T04:19:53;3.10;60.30
15298;DHT22;7750;48.796;9.026;2023-03-01T04:24:54;3.10;60.20
15298;DHT22;7750;48.796;9.026;2023-03-01T04:29:55;3.10;60.30
15298;DHT22;7750;48.796;9.026;2023-03-01T04:34:56;3.10;60.30
15298;DHT22;7750;48.796;9.026;2023-03-01T04:39:56;3.20;60.40
15298;DHT22;7750;48.796;9.026;2023-03-01T04:44:57;3.20;60.50
15298;DHT22;7750;48.796;9.026;2023-03-01T04:49:58;3.20;60.40
15298;DHT22;7750;48.796;9.026;2023-03-01T04:54:58;3.20;60.60
15298;DHT22;7750;48.796;9.026;2023-03-01T04:59:59;3.20;60.60
15298;DHT22;7750;48.796;9.026;2023-03-01T05:05:00;3.20;60.60
15298;DHT22;7750;48.796;9.026;2023-03-01T05:10:00;3.20;60.70
15298;DHT22;7750;48.796;9.026;2023-03-01T05:15:01;3.20;60.90
15298;DHT22;7750;48.796;9.026;2023-03-01T05:20:07;3.30;61.00
15298;DHT22;7750;48.796;9.026;2023-03-01T05:25:11;3.30;61.00
15298;DHT22;7750;48.796;9.026;2023-03-01T05:30:14;3.30;61.00
15298;DHT22;7750;48.796;9.026;2023-03-01T05:35:17;3.40;61.10
15298;DHT22;7750;48.796;9.026;2023-03-01T05:40:20;3.40;61.10
15298;DHT22;7750;48.796;9.026;2023-03-01T05:45:22;3.40;61.00
15298;DHT22;7750;48.796;9.026;2023-03-01T05:50:28;3.40;61.00
15298;DHT22;7750;48.796;9.026;2023-03-01T05:55:29;3.40;61.20
15298;DHT22;7750;48.796;9.026;2023-03-01T06:00:34;3.40;61.10
15298;DHT22;7750;48.796;9.026;2023-03-01T06:05:34;3.40;61.20
15298;DHT22;7750;48.796;9.026;2023-03-01T06:10:35;3.40;61.30
15298;DHT22;7750;48.796;9.026;2023-03-01T06:15:36;3.40;61.90
15298;DHT22;7750;48.796;9.026;2023-03-01T06:20:36;3.40;61.40
15298;DHT22;7750;48.796;9.026;2023-03-01T06:25:37;3.50;61.60
15298;DHT22;7750;48.796;9.026;2023-03-01T06:30:37;3.50;61.70
15298;DHT22;7750;48.796;9.026;2023-03-01T06:35:38;3.50;61.70
15298;DHT22;7750;48.796;9.026;2023-03-01T06:40:39;3.50;61.80
15298;DHT22;7750;48.796;9.026;2023-03-01T06:45:39;3.50;61.80
15298;DHT22;7750;48.796;9.026;2023-03-01T06:50:40;3.50;61.90
15298;DHT22;7750;48.796;9.026;2023-03-01T06:55:41;3.50;61.70
15298;DHT22;7750;48.796;9.026;2023-03-01T07:00:41;3.50;62.00
15298;DHT22;7750;48.796;9.026;2023-03-01T07:05:43;3.50;62.50
15298;DHT22;7750;48.796;9.026;2023-03-01T07:10:44;3.50;61.90
15298;DHT22;7750;48.796;9.026;2023-03-01T07:15:45;3.50;62.70
15298;DHT22;7750;48.796;9.026;2023-03-01T07:20:46;3.60;62.10
15298;DHT22;7750;48.796;9.026;2023-03-01T07:25:53;3.60;62.10
15298;DHT22;7750;48.796;9.026;2023-03-01T07:30:54;3.80;62.60
15298;DHT22;7750;48.796;9.026;2023-03-01T07:36:03;4.10;63.00
15298;DHT22;7750;48.796;9.026;2023-03-01T07:41:04;4.60;63.40
15298;DHT22;7750;48.796;9.026;2023-03-01T07:46:06;5.30;63.60
15298;DHT22;7750;48.796;9.026;2023-03-01T07:51:07;6.00;63.10
15298;DHT22;7750;48.796;9.026;2023-03-01T07:56:10;6.60;62.60
15298;DHT22;7750;48.796;9.026;2023-03-01T08:01:18;7.20;61.30
15298;DHT22;7750;48.796;9.026;2023-03-01T08:06:19;7.70;60.80
15298;DHT22;7750;48.796;9.026;2023-03-01T08:11:20;8.20;59.90
15298;DHT22;7750;48.796;9.026;2023-03-01T08:16:21;8.70;59.60
15298;DHT22;7750;48.796;9.026;2023-03-01T08:21:21;9.20;59.40
15298;DHT22;7750;48.796;9.026;2023-03-01T08:26:22;9.60;57.60
15298;DHT22;7750;48.796;9.026;2023-03-01T08:36:37;10.20;57.60
15298;DHT22;7750;48.796;9.026;2023-03-01T08:41:39;10.50;56.60
15298;DHT22;7750;48.796;9.026;2023-03-01T08:46:41;10.70;56.20
15298;DHT22;7750;48.796;9.026;2023-03-01T08:51:43;10.70;55.10
15298;DHT22;7750;48.796;9.026;2023-03-01T08:56:44;10.60;54.60
15298;DHT22;7750;48.796;9.026;2023-03-01T09:01:45;10.40;54.50
15298;DHT22;7750;48.796;9.026;2023-03-01T09:06:45;10.20;54.40
15298;DHT22;7750;48.796;9.026;2023-03-01T09:11:46;10.00;54.70
15298;DHT22;7750;48.796;9.026;2023-03-01T09:16:47;9.90;54.30
15298;DHT22;7750;48.796;9.026;2023-03-01T09:21:47;9.70;54.50
15298;DHT22;7750;48.796;9.026;2023-03-01T09:26:55;9.40;54.10
15298;DHT22;7750;48.796;9.026;2023-03-01T09:31:56;9.20;54.10
15298;DHT22;7750;48.796;9.026;2023-03-01T09:36:57;9.10;54.40
15298;DHT22;7750;48.796;9.026;2023-03-01T09:42:03;8.90;54.00
15298;DHT22;7750;48.796;9.026;2023-03-01T09:47:05;8.80;54.40
15298;DHT22;7750;48.796;9.026;2023-03-01T09:57:39;8.80;54.70
15298;DHT22;7750;48.796;9.026;2023-03-01T10:02:46;8.80;54.60
15298;DHT22;7750;48.796;9.026;2023-03-01T10:18:39;8.80;54.90
15298;DHT22;7750;48.796;9.026;2023-03-01T10:23:41;8.90;55.00
15298;DHT22;7750;48.796;9.026;2023-03-01T10:29:04;9.00;55.00
15298;DHT22;7750;48.796;9.026;2023-03-01T10:34:32;9.10;55.00
15298;DHT22;7750;48.796;9.026;2023-03-01T10:39:34;9.10;54.20
15298;DHT22;7750;48.796;9.026;2023-03-01T10:44:47;9.00;54.30
15298;DHT22;7750;48.796;9.026;2023-03-01T10:50:00;9.10;54.60
15298;DHT22;7750;48.796;9.026;2023-03-01T10:55:26;9.20;54.60
15298;DHT22;7750;48.796;9.026;2023-03-01T11:00:28;9.40;54.80
15298;DHT22;7750;48.796;9.026;2023-03-01T11:05:29;9.50;54.90
15298;DHT22;7750;48.796;9.026;2023-03-01T11:10:35;9.70;54.80
15298;DHT22;7750;48.796;9.026;2023-03-01T11:15:39;10.00;54.70
15298;DHT22;7750;48.796;9.026;2023-03-01T11:20:40;10.30;54.00
15298;DHT22;7750;48.796;9.026;2023-03-01T11:26:02;10.50;54.10
15298;DHT22;7750;48.796;9.026;2023-03-01T11:31:10;10.70;53.80
15298;DHT22;7750;48.796;9.026;2023-03-01T11:36:33;11.60;50.20
15298;DHT22;7750;48.796;9.026;2023-03-01T11:41:36;11.50;51.00
15298;DHT22;7750;48.796;9.026;2023-03-01T11:46:50;11.40;52.00
15298;DHT22;7750;48.796;9.026;2023-03-01T12:02:27;11.80;51.80
15298;DHT22;7750;48.796;9.026;2023-03-01T12:07:44;11.90;51.40
15298;DHT22;7750;48.796;9.026;2023-03-01T12:18:38;12.10;51.10
15298;DHT22;7750;48.796;9.026;2023-03-01T12:24:06;12.20;50.90
15298;DHT22;7750;48.796;9.026;2023-03-01T12:29:35;12.30;50.40
15298;DHT22;7750;48.796;9.026;2023-03-01T12:34:53;12.40;49.70
15298;DHT22;7750;48.796;9.026;2023-03-01T12:50:47;12.80;49.80
15298;DHT22;7750;48.796;9.026;2023-03-01T12:55:49;13.00;49.70
15298;DHT22;7750;48.796;9.026;2023-03-01T13:11:48;13.40;48.90
15298;DHT22;7750;48.796;9.026;2023-03-01T13:16:55;13.60;49.40
15298;DHT22;7750;48.796;9.026;2023-03-01T13:21:56;13.70;49.60
15298;DHT22;7750;48.796;9.026;2023-03-01T13:32:19;13.80;47.70
15298;DHT22;7750;48.796;9.026;2023-03-01T13:37:35;13.90;48.40
15298;DHT22;7750;48.796;9.026;2023-03-01T13:42:43;14.00;48.40
15298;DHT22;7750;48.796;9.026;2023-03-01T13:47:51;14.10;48.70
15298;DHT22;7750;48.796;9.026;2023-03-01T13:52:54;14.20;48.00
15298;DHT22;7750;48.796;9.026;2023-03-01T13:57:57;14.30;48.70
15298;DHT22;7750;48.796;9.026;2023-03-01T14:03:04;14.40;46.80
15298;DHT22;7750;48.796;9.026;2023-03-01T14:08:14;14.40;47.60
15298;DHT22;7750;48.796;9.026;2023-03-01T14:19:02;14.50;47.10
15298;DHT22;7750;48.796;9.026;2023-03-01T14:24:20;14.60;47.60
15298;DHT22;7750;48.796;9.026;2023-03-01T14:29:33;14.70;46.60
15298;DHT22;7750;48.796;9.026;2023-03-01T14:34:34;14.70;46.50
15298;DHT22;7750;48.796;9.026;2023-03-01T14:39:35;14.70;47.20
15298;DHT22;7750;48.796;9.026;2023-03-01T14:44:35;14.70;47.30
15298;DHT22;7750;48.796;9.026;2023-03-01T14:49:37;14.70;47.20
15298;DHT22;7750;48.796;9.026;2023-03-01T14:54:44;14.60;46.70
15298;DHT22;7750;48.796;9.026;2023-03-01T14:59:51;14.50;46.80
15298;DHT22;7750;48.796;9.026;2023-03-01T15:04:59;14.40;46.60
15298;DHT22;7750;48.796;9.026;2023-03-01T15:10:06;14.30;46.60
15298;DHT22;7750;48.796;9.026;2023-03-01T15:15:43;14.30;47.20
15298;DHT22;7750;48.796;9.026;2023-03-01T15:20:44;14.30;47.00
15298;DHT22;7750;48.796;9.026;2023-03-01T15:25:45;14.20;46.90
15298;DHT22;7750;48.796;9.026;2023-03-01T15:36:41;14.00;46.90
15298;DHT22;7750;48.796;9.026;2023-03-01T15:41:47;13.90;46.60
15298;DHT22;7750;48.796;9.026;2023-03-01T15:46:48;13.80;46.90
15298;DHT22;7750;48.796;9.026;2023-03-01T15:51:49;13.70;47.20
15298;DHT22;7750;48.796;9.026;2023-03-01T15:56:50;13.60;47.30
15298;DHT22;7750;48.796;9.026;2023-03-01T16:01:51;13.70;46.90
15298;DHT22;7750;48.796;9.026;2023-03-01T16:06:53;13.60;47.20
15298;DHT22;7750;48.796;9.026;2023-03-01T16:11:54;13.60;46.70
15298;DHT22;7750;48.796;9.026;2023-03-01T16:16:55;13.60;46.70
15298;DHT22;7750;48.796;9.026;2023-03-01T16:21:55;13.50;46.50
15298;DHT22;7750;48.796;9.026;2023-03-01T16:26:56;13.50;46.70
15298;DHT22;7750;48.796;9.026;2023-03-01T16:31:56;13.40;46.50
15298;DHT22;7750;48.796;9.026;2023-03-01T16:37:00;13.40;46.90
15298;DHT22;7750;48.796;9.026;2023-03-01T16:42:00;13.30;46.80
15298;DHT22;7750;48.796;9.026;2023-03-01T16:47:01;13.30;47.00
15298;DHT22;7750;48.796;9.026;2023-03-01T16:52:02;13.20;47.10
15298;DHT22;7750;48.796;9.026;2023-03-01T16:57:02;13.10;46.90
15298;DHT22;7750;48.796;9.026;2023-03-01T17:02:08;12.90;46.50
15298;DHT22;7750;48.796;9.026;2023-03-01T17:07:11;12.60;46.90
15298;DHT22;7750;48.796;9.026;2023-03-01T17:12:12;12.40;47.10
15298;DHT22;7750;48.796;9.026;2023-03-01T17:17:13;12.10;47.70
15298;DHT22;7750;48.796;9.026;2023-03-01T17:22:14;11.90;47.30
15298;DHT22;7750;48.796;9.026;2023-03-01T17:27:15;11.60;47.50
15298;DHT22;7750;48.796;9.026;2023-03-01T17:32:16;11.40;47.60
15298;DHT22;7750;48.796;9.026;2023-03-01T17:37:17;11.20;47.90
15298;DHT22;7750;48.796;9.026;2023-03-01T17:42:18;11.00;48.00
15298;DHT22;7750;48.796;9.026;2023-03-01T17:47:18;10.80;48.20
15298;DHT22;7750;48.796;9.026;2023-03-01T17:52:19;10.60;48.30
15298;DHT22;7750;48.796;9.026;2023-03-01T17:57:23;10.40;48.50
15298;DHT22;7750;48.796;9.026;2023-03-01T18:02:23;10.30;48.70
15298;DHT22;7750;48.796;9.026;2023-03-01T18:07:26;10.20;48.90
15298;DHT22;7750;48.796;9.026;2023-03-01T18:12:27;10.10;49.10
15298;DHT22;7750;48.796;9.026;2023-03-01T18:17:28;9.90;49.00
15298;DHT22;7750;48.796;9.026;2023-03-01T18:22:29;9.80;49.20
15298;DHT22;7750;48.796;9.026;2023-03-01T18:27:30;9.60;49.80
15298;DHT22;7750;48.796;9.026;2023-03-01T18:32:30;9.50;49.60
15298;DHT22;7750;48.796;9.026;2023-03-01T18:37:31;9.40;49.70
15298;DHT22;7750;48.796;9.026;2023-03-01T18:42:32;9.30;49.90
15298;DHT22;7750;48.796;9.026;2023-03-01T18:47:32;9.20;49.90
15298;DHT22;7750;48.796;9.026;2023-03-01T18:52:33;9.10;50.00
15298;DHT22;7750;48.796;9.026;2023-03-01T18:57:33;9.00;50.40
15298;DHT22;7750;48.796;9.026;2023-03-01T19:02:34;9.00;50.40
15298;DHT22;7750;48.796;9.026;2023-03-01T19:07:35;8.90;50.40
15298;DHT22;7750;48.796;9.026;2023-03-01T19:12:35;8.80;50.40
15298;DHT22;7750;48.796;9.026;2023-03-01T19:17:36;8.70;50.50
15298;DHT22;7750;48.796;9.026;2023-03-01T19:22:37;8.60;50.60
15298;DHT22;7750;48.796;9.026;2023-03-01T19:27:38;8.50;50.70
15298;DHT22;7750;48.796;9.026;2023-03-01T19:32:38;8.40;50.80
15298;DHT22;7750;48.796;9.026;2023-03-01T19:37:39;8.30;51.00
15298;DHT22;7750;48.796;9.026;2023-03-01T19:42:39;8.20;51.00
15298;DHT22;7750;48.796;9.026;2023-03-01T19:47:40;8.10;51.10
15298;DHT22;7750;48.796;9.026;2023-03-01T19:52:41;8.00;51.30
15298;DHT22;7750;48.796;9.026;2023-03-01T19:57:41;7.90;51.40
15298;DHT22;7750;48.796;9.026;2023-03-01T20:02:42;7.80;51.60
15298;DHT22;7750;48.796;9.026;2023-03-01T20:07:43;7.70;51.70
15298;DHT22;7750;48.796;9.026;2023-03-01T20:12:43;7.60;51.80
15298;DHT22;7750;48.796;9.026;2023-03-01T20:17:44;7.60;52.00
15298;DHT22;7750;48.796;9.026;2023-03-01T20:22:45;7.50;52.10
15298;DHT22;7750;48.796;9.026;2023-03-01T20:27:45;7.40;52.20
15298;DHT22;7750;48.796;9.026;2023-03-01T20:32:46;7.40;52.30
15298;DHT22;7750;48.796;9.026;2023-03-01T20:37:49;7.30;52.50
15298;DHT22;7750;48.796;9.026;2023-03-01T20:42:50;7.30;52.70
15298;DHT22;7750;48.796;9.026;2023-03-01T20:47:51;7.20;52.70
15298;DHT22;7750;48.796;9.026;2023-03-01T20:52:51;7.20;52.80
15298;DHT22;7750;48.796;9.026;2023-03-01T20:57:52;7.20;52.90
15298;DHT22;7750;48.796;9.026;2023-03-01T21:02:53;7.10;53.00
15298;DHT22;7750;48.796;9.026;2023-03-01T21:07:53;7.10;53.10
15298;DHT22;7750;48.796;9.026;2023-03-01T21:12:54;7.00;53.10
15298;DHT22;7750;48.796;9.026;2023-03-01T21:17:54;6.90;53.30
15298;DHT22;7750;48.796;9.026;2023-03-01T21:22:55;6.90;53.40
15298;DHT22;7750;48.796;9.026;2023-03-01T21:27:56;6.80;53.50
15298;DHT22;7750;48.796;9.026;2023-03-01T21:32:56;6.80;53.60
15298;DHT22;7750;48.796;9.026;2023-03-01T21:37:57;6.70;53.70
15298;DHT22;7750;48.796;9.026;2023-03-01T21:42:58;6.60;53.80
15298;DHT22;7750;48.796;9.026;2023-03-01T21:47:58;6.60;54.10
15298;DHT22;7750;48.796;9.026;2023-03-01T21:52:59;6.50;54.00
15298;DHT22;7750;48.796;9.026;2023-03-01T21:58:04;6.50;54.10
15298;DHT22;7750;48.796;9.026;2023-03-01T22:03:05;6.50;54.20
15298;DHT22;7750;48.796;9.026;2023-03-01T22:08:06;6.40;54.30
15298;DHT22;7750;48.796;9.026;2023-03-01T22:13:07;6.40;54.50
15298;DHT22;7750;48.796;9.026;2023-03-01T22:18:09;6.30;54.50
15298;DHT22;7750;48.796;9.026;2023-03-01T22:23:10;6.30;54.60
15298;DHT22;7750;48.796;9.026;2023-03-01T22:28:10;6.20;54.70
15298;DHT22;7750;48.796;9.026;2023-03-01T22:33:11;6.20;54.70
15298;DHT22;7750;48.796;9.026;2023-03-01T22:38:11;6.10;54.80
15298;DHT22;7750;48.796;9.026;2023-03-01T22:43:12;6.10;55.00
15298;DHT22;7750;48.796;9.026;2023-03-01T22:48:13;6.00;55.20
15298;DHT22;7750;48.796;9.026;2023-03-01T22:53:13;6.00;55.10
15298;DHT22;7750;48.796;9.026;2023-03-01T22:58:14;5.90;55.20
15298;DHT22;7750;48.796;9.026;2023-03-01T23:03:15;5.90;55.40
15298;DHT22;7750;48.796;9.026;2023-03-01T23:08:16;5.80;55.40
15298;DHT22;7750;48.796;9.026;2023-03-01T23:13:17;5.80;55.50
15298;DHT22;7750;48.796;9.026;2023-03-01T23:18:17;5.80;55.20
15298;DHT22;7750;48.796;9.026;2023-03-01T23:23:18;5.70;55.60
15298;DHT22;7750;48.796;9.026;2023-03-01T23:28:19;5.70;55.90
15298;DHT22;7750;48.796;9.026;2023-03-01T23:33:20;5.60;55.90
15298;DHT22;7750;48.796;9.026;2023-03-01T23:38:21;5.60;56.00
15298;DHT22;7750;48.796;9.026;2023-03-01T23:43:21;5.60;56.10
15298;DHT22;7750;48.796;9.026;2023-03-01T23:48:22;5.50;56.20
15298;DHT22;7750;48.796;9.026;2023-03-01T23:53:23;5.50;56.30
15298;DHT22;7750;48.796;9.026;2023-03-01T23:58:23;5.40;56.30
